Time;durP1;ratioP1;P1;durP2;ratioP2;P2;SDS_P1;SDS_P2;PMS_P1;PMS_P2;Temp;Humidity;BMP_temperature;BMP_pressure;BME280_temperature;BME280_humidity;BME280_pressure;Samples;Min_cycle;Max_cycle;Signal;HPM_P1;HPM_P2
2021/07/09 00:01:42;;;;;;;11.35;6.47;;;;;;;19.07;100.00;96447.41;5043160;28;20215;-70
2021/07/09 00:04:10;;;;;;;9.55;5.63;;;;;;;18.76;100.00;96447.56;5043539;28;20197;-70
2021/07/09 00:06:38;;;;;;;8.70;6.28;;;;;;;19.16;100.00;96446.06;5044350;28;20208;-69
2021/07/09 00:09:05;;;;;;;11.85;5.35;;;;;;;19.08;100.00;96446.34;5043773;28;20232;-70
2021/07/09 00:11:31;;;;;;;8.07;5.32;;;;;;;19.09;100.00;96442.66;5044565;28;20220;-70
2021/07/09 00:13:58;;;;;;;10.45;5.53;;;;;;;18.92;100.00;96438.13;5044602;28;20213;-71
2021/07/09 00:16:25;;;;;;;10.60;5.22;;;;;;;18.85;100.00;96438.22;5044769;28;20201;-70
2021/07/09 00:18:51;;;;;;;10.63;5.30;;;;;;;18.44;100.00;96431.88;5044590;28;20224;-70
2021/07/09 00:21:18;;;;;;;8.77;5.93;;;;;;;18.70;100.00;96432.41;5044601;28;20201;-70
2021/07/09 00:23:46;;;;;;;9.75;6.03;;;;;;;18.88;100.00;96432.41;5044476;28;20792;-69
2021/07/09 00:26:13;;;;;;;7.60;5.80;;;;;;;18.66;100.00;96425.06;5044103;28;20201;-70
2021/07/09 00:28:40;;;;;;;9.43;6.85;;;;;;;18.55;100.00;96418.59;5043650;28;20221;-70
2021/07/09 00:31:07;;;;;;;8.80;6.82;;;;;;;18.64;100.00;96419.94;5043230;28;20225;-69
2021/07/09 00:33:33;;;;;;;9.55;6.90;;;;;;;18.57;100.00;96421.88;5042952;28;20208;-70
2021/07/09 00:36:00;;;;;;;10.15;7.10;;;;;;;18.91;100.00;96420.47;5040837;28;20676;-69
2021/07/09 00:38:26;;;;;;;10.00;7.35;;;;;;;18.76;100.00;96426.19;5040613;28;20236;-69
2021/07/09 00:40:54;;;;;;;10.18;7.03;;;;;;;18.97;100.00;96421.19;5043952;28;20673;-70
2021/07/09 00:43:21;;;;;;;11.50;7.63;;;;;;;19.06;100.00;96419.88;5043416;28;20206;-69
2021/07/09 00:45:48;;;;;;;11.98;7.60;;;;;;;19.06;100.00;96417.22;5043916;28;20216;-70
2021/07/09 00:48:14;;;;;;;10.10;7.32;;;;;;;19.00;100.00;96412.75;5044096;28;20238;-69
2021/07/09 00:50:41;;;;;;;12.00;7.25;;;;;;;19.10;100.00;96409.56;5044365;28;20236;-70
2021/07/09 00:53:08;;;;;;;12.65;7.32;;;;;;;18.80;100.00;96411.34;5043829;28;20205;-69
2021/07/09 00:55:35;;;;;;;13.48;7.40;;;;;;;18.81;100.00;96410.28;5044394;28;20212;-70
2021/07/09 00:58:03;;;;;;;11.02;8.20;;;;;;;19.07;100.00;96407.34;5043413;28;20244;-69
2021/07/09 01:00:31;;;;;;;10.95;7.43;;;;;;;18.99;100.00;96411.09;5043789;28;20601;-70
2021/07/09 01:02:59;;;;;;;11.25;7.45;;;;;;;19.07;100.00;96404.69;5044017;28;20215;-69
2021/07/09 01:05:26;;;;;;;12.23;7.25;;;;;;;18.94;100.00;96402.97;5044305;28;20201;-70
2021/07/09 01:07:53;;;;;;;9.73;7.57;;;;;;;18.95;100.00;96404.59;5042193;28;20205;-70
2021/07/09 01:10:21;;;;;;;19.27;7.18;;;;;;;18.84;100.00;96407.19;5043261;28;20229;-69
2021/07/09 01:12:48;;;;;;;13.32;8.02;;;;;;;18.62;100.00;96400.69;5044034;28;20671;-70
2021/07/09 01:15:19;;;;;;;10.35;7.00;;;;;;;18.70;100.00;96402.22;5048715;28;20202;-70
2021/07/09 01:17:46;;;;;;;12.88;8.02;;;;;;;18.68;100.00;96410.44;5047694;28;20209;-70
2021/07/09 01:20:16;;;;;;;13.35;8.57;;;;;;;18.65;100.00;96402.09;5047362;28;20193;-71
2021/07/09 01:22:44;;;;;;;13.77;9.68;;;;;;;18.63;100.00;96398.81;5047911;28;20560;-70
2021/07/09 01:25:14;;;;;;;12.60;8.85;;;;;;;18.37;100.00;96399.91;5046470;28;20216;-71
2021/07/09 01:27:42;;;;;;;17.38;10.70;;;;;;;18.48;100.00;96404.53;5047776;28;20235;-70
2021/07/09 01:30:11;;;;;;;15.98;10.85;;;;;;;18.31;100.00;96409.84;5048025;28;20225;-69
2021/07/09 01:32:38;;;;;;;19.30;12.20;;;;;;;18.43;100.00;96404.38;5047976;28;20209;-69
2021/07/09 01:35:06;;;;;;;16.98;11.68;;;;;;;18.20;100.00;96408.72;5047577;28;20201;-70
2021/07/09 01:37:32;;;;;;;19.05;12.45;;;;;;;18.05;100.00;96404.69;5046425;28;20205;-70
2021/07/09 01:39:59;;;;;;;17.15;11.20;;;;;;;18.14;100.00;96414.06;5043803;28;20232;-70
2021/07/09 01:42:27;;;;;;;19.02;12.82;;;;;;;18.20;100.00;96406.06;5047801;28;20202;-70
2021/07/09 01:44:54;;;;;;;19.67;13.77;;;;;;;18.27;100.00;96408.66;5047538;28;20209;-70
2021/07/09 01:47:21;;;;;;;19.80;12.85;;;;;;;18.21;100.00;96409.53;5047396;28;20673;-69
2021/07/09 01:49:50;;;;;;;18.20;13.55;;;;;;;18.39;100.00;96400.50;5048849;28;20231;-69
2021/07/09 01:52:17;;;;;;;19.48;13.02;;;;;;;18.45;100.00;96407.63;5049555;28;20346;-69
2021/07/09 01:54:44;;;;;;;19.45;12.80;;;;;;;18.46;100.00;96409.25;5047017;28;20231;-69
2021/07/09 01:57:10;;;;;;;19.50;12.98;;;;;;;18.25;100.00;96405.38;5047752;28;20206;-70
2021/07/09 01:59:38;;;;;;;22.33;13.85;;;;;;;18.42;100.00;96408.06;5048845;28;20224;-70
2021/07/09 02:02:05;;;;;;;21.77;12.65;;;;;;;18.16;100.00;96406.66;5047023;28;20576;-69
2021/07/09 02:04:32;;;;;;;16.00;12.68;;;;;;;18.29;100.00;96411.91;5047684;28;20209;-70
2021/07/09 02:06:59;;;;;;;15.43;10.60;;;;;;;17.95;100.00;96409.75;5047063;28;20209;-68
2021/07/09 02:09:25;;;;;;;16.08;10.88;;;;;;;18.12;100.00;96410.81;5046136;28;20225;-69
2021/07/09 02:11:52;;;;;;;16.08;11.57;;;;;;;18.13;100.00;96410.59;5046199;28;20989;-69
2021/07/09 02:14:18;;;;;;;17.58;12.15;;;;;;;17.97;100.00;96412.97;5046934;28;20205;-69
2021/07/09 02:16:46;;;;;;;18.75;12.30;;;;;;;18.19;100.00;96411.59;5047219;28;20674;-70
2021/07/09 02:19:13;;;;;;;17.55;11.43;;;;;;;17.98;100.00;96414.63;5043801;28;20221;-69
2021/07/09 02:21:43;;;;;;;18.90;11.77;;;;;;;18.02;100.00;96410.47;5047594;28;20673;-70
2021/07/09 02:24:09;;;;;;;14.40;10.80;;;;;;;17.85;100.00;96412.88;5046691;28;20537;-70
2021/07/09 02:26:36;;;;;;;11.90;9.15;;;;;;;17.92;100.00;96399.47;5046764;28;20205;-69
2021/07/09 02:29:04;;;;;;;8.18;5.63;;;;;;;17.62;100.00;96398.50;5040421;28;20605;-69
2021/07/09 02:31:30;;;;;;;7.03;5.65;;;;;;;17.50;100.00;96399.41;5045640;28;20620;-68
2021/07/09 02:33:58;;;;;;;7.22;4.93;;;;;;;17.63;100.00;96401.97;5045885;28;20819;-70
2021/07/09 02:36:25;;;;;;;7.78;6.10;;;;;;;17.62;100.00;96403.84;5045338;28;20212;-70
2021/07/09 02:38:51;;;;;;;7.80;6.72;;;;;;;17.74;100.00;96413.59;5043099;28;20231;-69
2021/07/09 02:41:18;;;;;;;10.65;5.53;;;;;;;17.57;100.00;96411.66;5044636;28;20197;-69
2021/07/09 02:43:44;;;;;;;6.00;4.30;;;;;;;17.70;100.00;96418.75;5044872;28;20205;-70
2021/07/09 02:46:11;;;;;;;5.80;4.35;;;;;;;17.56;100.00;96423.34;5043917;28;20212;-70
2021/07/09 02:48:37;;;;;;;5.47;4.25;;;;;;;17.62;100.00;96419.81;5043410;28;20221;-70
2021/07/09 02:51:05;;;;;;;3.78;3.38;;;;;;;17.55;100.00;96418.22;5044468;28;20240;-69
2021/07/09 02:53:32;;;;;;;3.20;2.90;;;;;;;17.43;100.00;96422.63;5043519;28;20878;-69
2021/07/09 02:55:58;;;;;;;4.35;2.55;;;;;;;17.32;100.00;96426.78;5043595;28;20201;-69
2021/07/09 02:58:25;;;;;;;4.40;2.85;;;;;;;17.46;100.00;96424.84;5043895;28;20240;-70
2021/07/09 03:00:51;;;;;;;5.15;2.55;;;;;;;17.31;100.00;96422.50;5043049;28;20658;-70
2021/07/09 03:03:18;;;;;;;3.22;2.55;;;;;;;17.22;100.00;96426.41;5043237;28;20205;-69
2021/07/09 03:05:44;;;;;;;2.95;2.50;;;;;;;17.14;100.00;96429.31;5043248;28;20221;-70
2021/07/09 03:08:12;;;;;;;3.50;2.55;;;;;;;17.14;100.00;96425.81;5042950;28;20236;-69
2021/07/09 03:10:39;;;;;;;4.57;2.40;;;;;;;17.14;100.00;96434.66;5043458;28;20225;-70
2021/07/09 03:13:05;;;;;;;5.20;2.80;;;;;;;17.33;100.00;96436.41;5041512;28;20203;-69
2021/07/09 03:15:32;;;;;;;3.20;2.40;;;;;;;17.26;100.00;96434.78;5041543;28;20299;-69
2021/07/09 03:17:58;;;;;;;2.80;2.40;;;;;;;17.31;100.00;96445.63;5041050;28;20232;-70
2021/07/09 03:20:25;;;;;;;4.90;2.05;;;;;;;17.20;100.00;96432.97;5042458;28;20212;-69
2021/07/09 03:22:52;;;;;;;3.45;2.20;;;;;;;16.89;100.00;96437.41;5043090;28;20663;-70
2021/07/09 03:25:19;;;;;;;4.38;3.00;;;;;;;17.25;100.00;96427.84;5043745;28;20216;-70
2021/07/09 03:27:46;;;;;;;3.35;2.38;;;;;;;16.98;100.00;96428.16;5040916;28;21036;-69
2021/07/09 03:30:14;;;;;;;3.50;2.47;;;;;;;16.80;100.00;96430.69;5041916;28;20595;-70
2021/07/09 03:32:40;;;;;;;6.28;2.58;;;;;;;17.10;100.00;96422.75;5041421;28;20205;-71
2021/07/09 03:35:10;;;;;;;4.68;3.60;;;;;;;17.21;100.00;96432.75;5040323;28;20205;-69
2021/07/09 03:37:37;;;;;;;5.70;3.67;;;;;;;17.17;100.00;96431.53;5039493;28;20208;-69
2021/07/09 03:40:05;;;;;;;6.82;4.07;;;;;;;17.09;100.00;96434.47;5037722;28;20205;-70
2021/07/09 03:42:32;;;;;;;9.88;4.80;;;;;;;17.35;100.00;96436.19;5040952;28;20783;-70
2021/07/09 03:44:59;;;;;;;6.78;4.03;;;;;;;16.87;100.00;96442.13;5040927;28;20684;-70
2021/07/09 03:47:26;;;;;;;6.18;3.60;;;;;;;16.96;100.00;96441.66;5041045;28;20575;-69
2021/07/09 03:49:52;;;;;;;5.95;3.72;;;;;;;17.06;100.00;96443.91;5041514;28;20596;-70
2021/07/09 03:52:19;;;;;;;8.55;4.70;;;;;;;17.06;100.00;96446.56;5041916;28;20205;-70
2021/07/09 03:54:45;;;;;;;5.18;4.07;;;;;;;16.73;100.00;96448.53;5042005;28;20205;-70
2021/07/09 03:57:12;;;;;;;6.25;4.30;;;;;;;16.91;100.00;96444.16;5040494;28;20295;-70
2021/07/09 03:59:40;;;;;;;7.28;4.22;;;;;;;17.04;100.00;96445.94;5042537;28;20224;-70
2021/07/09 04:02:07;;;;;;;6.38;3.35;;;;;;;16.83;100.00;96448.91;5041947;28;20202;-69
2021/07/09 04:04:33;;;;;;;6.40;4.13;;;;;;;16.86;100.00;96446.63;5042545;28;20209;-70
2021/07/09 04:07:00;;;;;;;5.47;3.50;;;;;;;16.76;100.00;96451.59;5040599;28;20212;-70
2021/07/09 04:09:26;;;;;;;7.28;4.45;;;;;;;16.81;100.00;96450.94;5041453;28;20656;-70
2021/07/09 04:11:53;;;;;;;6.43;4.07;;;;;;;16.63;100.00;96464.09;5041030;28;20221;-70
2021/07/09 04:14:19;;;;;;;8.45;3.35;;;;;;;16.53;100.00;96461.06;5041684;28;20201;-70
2021/07/09 04:16:47;;;;;;;6.85;4.45;;;;;;;16.66;100.00;96453.03;5041355;28;20205;-70
2021/07/09 04:19:14;;;;;;;7.13;5.03;;;;;;;16.71;100.00;96458.53;5040568;28;20217;-70
2021/07/09 04:21:41;;;;;;;4.20;3.22;;;;;;;16.62;100.00;96460.63;5042400;28;20578;-70
2021/07/09 04:24:07;;;;;;;6.55;4.28;;;;;;;16.58;100.00;96462.06;5042796;28;20205;-70
2021/07/09 04:26:34;;;;;;;6.55;5.07;;;;;;;16.74;100.00;96464.28;5041138;28;20213;-71
2021/07/09 04:29:01;;;;;;;7.40;4.60;;;;;;;16.89;100.00;96467.50;5041198;28;20230;-70
2021/07/09 04:31:27;;;;;;;7.72;4.80;;;;;;;16.81;100.00;96461.59;5041811;28;20696;-70
2021/07/09 04:33:55;;;;;;;6.30;4.60;;;;;;;16.88;100.00;96467.69;5040838;28;20209;-71
2021/07/09 04:36:22;;;;;;;7.40;4.90;;;;;;;16.97;100.00;96466.44;5041185;28;20603;-71
2021/07/09 04:38:48;;;;;;;5.22;4.72;;;;;;;16.81;100.00;96467.72;5037736;28;20923;-70
2021/07/09 04:41:15;;;;;;;5.82;4.47;;;;;;;16.83;100.00;96472.88;5041201;28;20201;-71
2021/07/09 04:43:41;;;;;;;7.63;5.10;;;;;;;16.67;100.00;96470.63;5042477;28;20212;-70
2021/07/09 04:46:08;;;;;;;6.63;4.75;;;;;;;16.76;100.00;96474.72;5041272;28;20296;-70
2021/07/09 04:48:35;;;;;;;8.63;6.50;;;;;;;16.92;100.00;96474.25;5041692;28;20666;-71
2021/07/09 04:51:03;;;;;;;5.93;5.05;;;;;;;16.85;100.00;96473.44;5045369;28;21107;-71
2021/07/09 04:53:31;;;;;;;7.90;4.18;;;;;;;16.65;100.00;96481.50;5045583;28;20205;-71
2021/07/09 04:55:57;;;;;;;9.50;5.40;;;;;;;16.87;100.00;96482.88;5045800;28;20212;-71
2021/07/09 04:58:24;;;;;;;8.15;5.07;;;;;;;16.83;100.00;96486.16;5044527;28;20233;-71
2021/07/09 05:00:50;;;;;;;6.97;4.30;;;;;;;16.59;100.00;96489.50;5045054;28;20220;-70
2021/07/09 05:03:17;;;;;;;9.23;5.35;;;;;;;16.73;100.00;96499.09;5045068;28;20203;-70
2021/07/09 05:05:44;;;;;;;8.98;5.28;;;;;;;16.73;100.00;96504.41;5044760;28;20673;-71
2021/07/09 05:08:12;;;;;;;10.05;4.72;;;;;;;16.96;100.00;96504.75;5044613;28;20642;-70
2021/07/09 05:10:38;;;;;;;8.60;5.10;;;;;;;16.64;100.00;96516.31;5045089;28;20756;-70
2021/07/09 05:13:05;;;;;;;8.25;4.85;;;;;;;16.85;100.00;96518.69;5045117;28;20228;-71
2021/07/09 05:15:32;;;;;;;6.72;5.30;;;;;;;16.78;100.00;96528.56;5045443;28;20208;-71
2021/07/09 05:17:58;;;;;;;8.63;3.83;;;;;;;16.46;100.00;96526.75;5044306;28;20232;-70
2021/07/09 05:20:25;;;;;;;6.50;4.28;;;;;;;16.56;100.00;96527.16;5043707;28;20220;-70
2021/07/09 05:22:52;;;;;;;8.27;5.38;;;;;;;16.61;100.00;96530.84;5043682;28;20677;-71
2021/07/09 05:25:20;;;;;;;5.97;4.80;;;;;;;16.73;100.00;96528.38;5043764;28;20201;-70
2021/07/09 05:27:47;;;;;;;5.68;4.53;;;;;;;16.66;100.00;96516.91;5042312;28;20209;-71
2021/07/09 05:30:16;;;;;;;5.28;4.20;;;;;;;16.91;100.00;96529.34;5043658;28;20665;-70
2021/07/09 05:32:44;;;;;;;6.63;3.80;;;;;;;16.76;100.00;96527.94;5044288;28;20267;-70
2021/07/09 05:35:11;;;;;;;5.78;3.95;;;;;;;16.93;100.00;96537.09;5043882;28;20201;-70
2021/07/09 05:37:38;;;;;;;7.45;3.30;;;;;;;16.68;100.00;96536.94;5042124;28;20243;-71
2021/07/09 05:40:07;;;;;;;5.57;4.00;;;;;;;17.01;100.00;96526.25;5042199;28;20216;-70
2021/07/09 05:42:35;;;;;;;6.63;4.22;;;;;;;16.95;100.00;96537.72;5043189;28;20216;-71
2021/07/09 05:45:01;;;;;;;6.45;4.30;;;;;;;17.00;100.00;96540.59;5044283;28;20209;-71
2021/07/09 05:47:29;;;;;;;5.97;4.28;;;;;;;17.01;100.00;96537.72;5044097;28;20672;-71
2021/07/09 05:49:55;;;;;;;6.35;4.40;;;;;;;16.91;100.00;96533.84;5043704;28;20670;-71
2021/07/09 05:52:22;;;;;;;5.88;4.30;;;;;;;16.87;100.00;96537.97;5043676;28;20624;-71
2021/07/09 05:54:48;;;;;;;5.75;4.55;;;;;;;16.84;100.00;96544.50;5043748;28;20220;-71
2021/07/09 05:57:15;;;;;;;7.32;4.38;;;;;;;16.85;100.00;96546.16;5042001;28;20669;-70
2021/07/09 05:59:43;;;;;;;5.78;4.30;;;;;;;16.98;100.00;96547.94;5043361;28;20225;-70
2021/07/09 06:02:09;;;;;;;6.25;4.70;;;;;;;17.01;100.00;96542.22;5044144;28;20550;-71
2021/07/09 06:04:36;;;;;;;5.85;4.65;;;;;;;16.77;100.00;96557.00;5044860;28;20205;-71
2021/07/09 06:07:02;;;;;;;6.38;5.00;;;;;;;17.03;100.00;96551.66;5043261;28;20209;-70
2021/07/09 06:09:31;;;;;;;7.40;5.60;;;;;;;17.00;100.00;96565.34;5043280;28;20242;-71
2021/07/09 06:11:57;;;;;;;9.88;5.97;;;;;;;17.06;100.00;96553.06;5043239;28;20232;-71
2021/07/09 06:14:23;;;;;;;11.32;6.07;;;;;;;16.82;100.00;96559.06;5043096;28;20209;-70
2021/07/09 06:16:51;;;;;;;8.70;6.50;;;;;;;17.43;100.00;96556.66;5042624;28;20209;-70
2021/07/09 06:19:18;;;;;;;6.50;5.80;;;;;;;17.24;100.00;96567.34;5042211;28;20232;-71
2021/07/09 06:21:44;;;;;;;10.90;6.68;;;;;;;17.29;100.00;96573.69;5042922;28;20221;-71
2021/07/09 06:24:11;;;;;;;9.80;6.45;;;;;;;17.17;100.00;96578.03;5043853;28;20212;-70
2021/07/09 06:26:38;;;;;;;10.55;7.15;;;;;;;17.16;100.00;96576.38;5042973;28;20209;-70
2021/07/09 06:29:04;;;;;;;11.05;7.05;;;;;;;17.22;100.00;96572.06;5042763;28;20229;-70
2021/07/09 06:31:31;;;;;;;9.55;6.18;;;;;;;17.32;100.00;96572.47;5043342;28;20780;-71
2021/07/09 06:33:59;;;;;;;9.30;6.53;;;;;;;17.52;100.00;96566.03;5043104;28;20209;-70
2021/07/09 06:36:26;;;;;;;8.35;7.00;;;;;;;17.25;100.00;96569.81;5042658;28;20212;-70
2021/07/09 06:38:53;;;;;;;10.27;6.65;;;;;;;17.26;100.00;96581.28;5039965;28;20236;-70
2021/07/09 06:41:20;;;;;;;8.90;6.85;;;;;;;17.20;100.00;96582.91;5043470;28;20193;-71
2021/07/09 06:43:46;;;;;;;10.65;6.80;;;;;;;17.18;100.00;96581.50;5041986;28;20589;-70
2021/07/09 06:46:13;;;;;;;8.80;6.78;;;;;;;16.88;100.00;96582.16;5042059;28;20201;-70
2021/07/09 06:48:40;;;;;;;10.07;6.80;;;;;;;16.94;100.00;96584.00;5040776;28;20324;-70
2021/07/09 06:51:08;;;;;;;9.38;6.63;;;;;;;17.12;100.00;96588.47;5040158;28;20202;-73
2021/07/09 06:53:35;;;;;;;9.35;6.13;;;;;;;17.10;100.00;96590.53;5036133;28;20205;-73
2021/07/09 06:56:01;;;;;;;9.02;6.63;;;;;;;17.30;100.00;96599.31;5036134;28;20753;-74
2021/07/09 06:58:28;;;;;;;10.60;6.70;;;;;;;17.32;100.00;96597.28;5036206;28;20251;-73
2021/07/09 07:00:54;;;;;;;8.38;6.75;;;;;;;17.08;100.00;96598.94;5038690;28;20193;-71
2021/07/09 07:03:21;;;;;;;6.93;5.00;;;;;;;16.97;100.00;96594.22;5039140;28;20737;-71
2021/07/09 07:05:47;;;;;;;12.95;6.38;;;;;;;17.21;100.00;96602.41;5039010;28;20666;-72
2021/07/09 07:08:17;;;;;;;7.15;5.30;;;;;;;17.25;100.00;96598.31;5039996;28;20303;-70
2021/07/09 07:10:44;;;;;;;9.18;5.75;;;;;;;17.07;100.00;96597.28;5038818;28;20689;-70
2021/07/09 07:13:11;;;;;;;11.95;6.20;;;;;;;17.31;100.00;96605.44;5039638;28;21112;-71
2021/07/09 07:15:39;;;;;;;6.10;3.20;;;;;;;16.92;100.00;96604.72;5040017;28;20209;-71
2021/07/09 07:18:08;;;;;;;7.45;4.72;;;;;;;17.22;100.00;96604.00;5039060;28;20226;-71
2021/07/09 07:20:35;;;;;;;9.20;4.60;;;;;;;17.12;100.00;96607.13;5039574;28;20216;-70
2021/07/09 07:23:02;;;;;;;9.25;6.00;;;;;;;17.10;100.00;96611.81;5039597;28;20754;-71
2021/07/09 07:25:30;;;;;;;7.03;5.60;;;;;;;17.38;100.00;96615.06;5041303;28;20240;-70
2021/07/09 07:27:56;;;;;;;13.30;6.25;;;;;;;17.30;100.00;96611.84;5040453;28;20205;-71
2021/07/09 07:30:23;;;;;;;10.45;6.53;;;;;;;17.53;100.00;96612.19;5040554;28;20208;-71
2021/07/09 07:32:49;;;;;;;9.38;5.75;;;;;;;17.22;100.00;96620.84;5040393;28;20229;-71
2021/07/09 07:35:16;;;;;;;8.82;5.88;;;;;;;17.15;100.00;96625.34;5040185;28;20224;-71
2021/07/09 07:37:43;;;;;;;10.60;6.45;;;;;;;17.22;100.00;96623.50;5038641;28;20220;-71
2021/07/09 07:40:10;;;;;;;9.13;5.25;;;;;;;17.17;100.00;96625.97;5038538;28;20227;-71
2021/07/09 07:42:38;;;;;;;9.82;5.53;;;;;;;17.33;100.00;96628.19;5041006;28;20205;-71
2021/07/09 07:45:06;;;;;;;9.00;6.07;;;;;;;17.00;100.00;96625.78;5040306;28;20300;-71
2021/07/09 07:47:32;;;;;;;9.13;5.65;;;;;;;17.14;100.00;96633.53;5040277;28;20201;-71
2021/07/09 07:49:59;;;;;;;9.07;5.97;;;;;;;16.99;100.00;96634.78;5041519;28;20236;-71
2021/07/09 07:52:26;;;;;;;8.90;6.07;;;;;;;17.24;100.00;96629.44;5040289;28;20232;-71
2021/07/09 07:54:52;;;;;;;13.10;6.07;;;;;;;17.14;100.00;96629.06;5040985;28;20220;-71
2021/07/09 07:57:20;;;;;;;9.07;6.25;;;;;;;17.26;100.00;96629.22;5040137;28;20205;-71
2021/07/09 07:59:48;;;;;;;8.90;6.30;;;;;;;17.28;100.00;96630.66;5040719;28;20273;-71
2021/07/09 08:02:14;;;;;;;7.25;5.18;;;;;;;17.34;100.00;96632.50;5039591;28;20625;-71
2021/07/09 08:04:41;;;;;;;8.45;6.18;;;;;;;17.33;100.00;96633.53;5039700;28;20946;-71
2021/07/09 08:07:10;;;;;;;7.18;4.82;;;;;;;17.14;100.00;96644.19;5037884;28;20197;-71
2021/07/09 08:09:36;;;;;;;10.55;4.90;;;;;;;17.07;100.00;96637.22;5039195;28;20229;-71
2021/07/09 08:12:05;;;;;;;8.50;5.72;;;;;;;17.33;100.00;96643.38;5039249;28;20233;-71
2021/07/09 08:14:31;;;;;;;8.13;5.80;;;;;;;17.15;100.00;96645.84;5030253;28;20314;-71
2021/07/09 08:16:59;;;;;;;9.30;5.40;;;;;;;17.49;100.00;96649.06;5038355;28;20209;-70
2021/07/09 08:19:26;;;;;;;9.05;6.03;;;;;;;17.49;100.00;96648.25;5038470;28;20232;-71
2021/07/09 08:21:53;;;;;;;7.05;4.30;;;;;;;17.35;100.00;96654.63;5040024;28;20216;-71
2021/07/09 08:24:20;;;;;;;7.40;4.20;;;;;;;17.48;100.00;96658.09;5044223;28;20679;-70
2021/07/09 08:26:47;;;;;;;5.38;4.03;;;;;;;17.35;100.00;96655.47;5045366;28;20208;-71
2021/07/09 08:29:13;;;;;;;5.75;4.30;;;;;;;17.57;100.00;96651.50;5044797;28;20217;-70
2021/07/09 08:31:40;;;;;;;4.65;3.83;;;;;;;17.54;100.00;96656.44;5045746;28;20211;-71
2021/07/09 08:34:08;;;;;;;5.07;3.28;;;;;;;17.58;100.00;96660.31;5045343;28;20197;-73
2021/07/09 08:36:34;;;;;;;4.60;3.03;;;;;;;17.53;100.00;96668.94;5046799;28;20204;-70
2021/07/09 08:39:01;;;;;;;5.15;3.70;;;;;;;17.73;100.00;96669.69;5045351;28;20221;-70
2021/07/09 08:41:27;;;;;;;4.60;3.70;;;;;;;17.69;100.00;96670.31;5045995;28;20236;-70
2021/07/09 08:43:54;;;;;;;4.93;4.05;;;;;;;17.68;100.00;96677.53;5045506;28;20205;-70
2021/07/09 08:46:21;;;;;;;5.07;3.60;;;;;;;17.68;100.00;96680.19;5041926;28;20760;-70
2021/07/09 08:48:48;;;;;;;6.70;4.00;;;;;;;17.81;100.00;96677.47;5044159;28;20298;-70
2021/07/09 08:51:16;;;;;;;5.07;4.00;;;;;;;17.88;100.00;96680.91;5043127;28;20216;-70
2021/07/09 08:53:42;;;;;;;4.53;3.80;;;;;;;17.94;100.00;96682.75;5044394;28;20239;-70
2021/07/09 08:56:09;;;;;;;6.53;4.65;;;;;;;17.81;100.00;96685.47;5044692;28;20205;-70
2021/07/09 08:58:36;;;;;;;3.65;2.90;;;;;;;17.58;100.00;96689.63;5045422;28;20739;-70
2021/07/09 09:01:05;;;;;;;6.35;4.53;;;;;;;17.80;100.00;96689.16;5044523;28;20657;-70
2021/07/09 09:03:31;;;;;;;6.60;3.35;;;;;;;17.58;100.00;96690.47;5045010;28;20201;-69
2021/07/09 09:06:01;;;;;;;6.20;4.35;;;;;;;18.25;100.00;96693.50;5044490;28;20872;-70
2021/07/09 09:08:30;;;;;;;7.88;5.00;;;;;;;18.42;100.00;96680.28;5043452;28;20221;-70
2021/07/09 09:10:58;;;;;;;7.43;5.65;;;;;;;18.32;100.00;96702.28;5042851;28;20198;-70
2021/07/09 09:13:26;;;;;;;7.72;4.88;;;;;;;18.06;100.00;96699.72;5043488;28;20228;-70
2021/07/09 09:16:03;;;;;;;5.15;3.55;;;;;;;18.11;100.00;96707.91;5042547;28;20220;-70
2021/07/09 09:18:33;;;;;;;7.07;4.60;;;;;;;18.12;100.00;96698.88;5041774;28;20317;-70
2021/07/09 09:21:01;;;;;;;8.73;5.55;;;;;;;18.34;100.00;96709.88;5042396;28;20661;-70
2021/07/09 09:23:31;;;;;;;5.35;4.43;;;;;;;18.32;100.00;96704.94;5043509;28;20209;-70
2021/07/09 09:25:58;;;;;;;6.40;4.82;;;;;;;18.42;100.00;96711.50;5044673;28;20193;-70
2021/07/09 09:28:25;;;;;;;8.93;5.30;;;;;;;18.64;100.00;96710.91;5043690;28;20873;-70
2021/07/09 09:30:54;;;;;;;6.53;4.80;;;;;;;18.65;100.00;96717.09;5043437;28;20206;-70
2021/07/09 09:33:21;;;;;;;6.32;4.05;;;;;;;18.46;100.00;96710.03;5043567;28;20236;-69
2021/07/09 09:35:54;;;;;;;7.85;5.25;;;;;;;18.73;100.00;96712.31;5042923;28;20196;-70
2021/07/09 09:38:26;;;;;;;8.40;5.07;;;;;;;18.82;100.00;96711.00;5039284;28;20225;-69
2021/07/09 09:40:54;;;;;;;5.13;4.50;;;;;;;18.89;100.00;96710.97;5042608;28;20573;-69
2021/07/09 09:43:23;;;;;;;7.53;4.80;;;;;;;18.90;100.00;96710.72;5042739;28;20198;-70
2021/07/09 09:46:01;;;;;;;7.95;4.97;;;;;;;19.09;100.00;96707.13;5042278;28;20205;-70
2021/07/09 09:48:36;;;;;;;8.35;5.07;;;;;;;19.06;100.00;96710.25;5041786;28;20255;-69
2021/07/09 09:51:03;;;;;;;9.02;5.18;;;;;;;18.84;100.00;96706.28;5041716;28;20208;-69
2021/07/09 09:53:35;;;;;;;10.13;5.30;;;;;;;19.18;99.64;96706.66;5042080;28;20232;-70
2021/07/09 09:56:07;;;;;;;9.02;5.82;;;;;;;19.14;100.00;96712.66;5041485;28;20243;-69
2021/07/09 09:58:33;;;;;;;7.75;5.97;;;;;;;18.69;100.00;96713.78;5040933;28;20241;-70
2021/07/09 10:01:00;;;;;;;9.45;6.20;;;;;;;18.97;100.00;96712.31;5040985;28;20205;-69
2021/07/09 10:03:26;;;;;;;9.82;6.22;;;;;;;18.55;100.00;96717.56;5042989;28;20206;-69
2021/07/09 10:05:53;;;;;;;8.85;6.22;;;;;;;18.93;100.00;96710.31;5042646;28;20209;-69
2021/07/09 10:08:24;;;;;;;11.05;6.13;;;;;;;18.86;100.00;96712.22;5042452;28;20221;-70
2021/07/09 10:10:51;;;;;;;6.78;5.57;;;;;;;18.60;100.00;96717.72;5042779;28;20947;-70
2021/07/09 10:13:21;;;;;;;7.32;5.90;;;;;;;18.62;100.00;96720.19;5045009;28;20221;-70
2021/07/09 10:15:50;;;;;;;9.38;6.57;;;;;;;18.86;100.00;96714.88;5043545;28;20216;-70
2021/07/09 10:18:18;;;;;;;8.88;6.57;;;;;;;18.92;100.00;96719.38;5042760;28;20217;-70
2021/07/09 10:20:47;;;;;;;9.63;6.13;;;;;;;18.84;100.00;96719.63;5043349;28;20205;-70
2021/07/09 10:23:15;;;;;;;9.80;6.75;;;;;;;19.07;100.00;96725.25;5043714;28;20198;-70
2021/07/09 10:25:46;;;;;;;10.73;6.68;;;;;;;19.29;100.00;96719.28;5042623;28;20677;-70
2021/07/09 10:28:13;;;;;;;9.73;6.35;;;;;;;19.52;98.43;96726.72;5042405;28;20231;-69
2021/07/09 10:30:42;;;;;;;9.73;6.97;;;;;;;19.84;100.00;96724.50;5043438;28;20209;-69
2021/07/09 10:33:31;;;;;;;10.15;6.90;;;;;;;19.82;95.95;96723.09;5042198;28;20302;-70
2021/07/09 10:35:58;;;;;;;8.30;6.60;;;;;;;20.17;95.88;96721.50;5043004;28;20258;-69
2021/07/09 10:38:34;;;;;;;9.23;7.30;;;;;;;20.22;97.81;96725.13;5038831;28;20279;-69
2021/07/09 10:41:11;;;;;;;8.52;5.88;;;;;;;20.25;94.02;96714.78;5041868;28;20251;-70
2021/07/09 10:43:38;;;;;;;8.60;5.82;;;;;;;20.04;94.23;96721.66;5043006;28;20235;-69
2021/07/09 10:46:08;;;;;;;8.88;5.57;;;;;;;20.20;94.90;96724.53;5041953;28;20205;-69
2021/07/09 10:48:37;;;;;;;8.25;5.35;;;;;;;19.84;93.43;96727.16;5041564;28;20224;-69
2021/07/09 10:51:04;;;;;;;7.38;5.28;;;;;;;20.07;91.78;96727.34;5042562;28;20267;-70
2021/07/09 10:53:34;;;;;;;8.10;6.28;;;;;;;20.59;92.13;96721.34;5042207;28;20265;-69
2021/07/09 10:56:02;;;;;;;9.55;5.65;;;;;;;20.71;90.50;96715.00;5042970;28;20231;-70
2021/07/09 10:58:41;;;;;;;9.18;6.78;;;;;;;21.19;92.71;96711.16;5042914;28;20233;-70
2021/07/09 11:01:15;;;;;;;10.20;6.75;;;;;;;21.19;92.06;96708.47;5043857;28;20193;-70
2021/07/09 11:03:43;;;;;;;9.65;7.03;;;;;;;20.69;93.33;96710.91;5040385;28;20212;-70
2021/07/09 11:06:12;;;;;;;7.90;5.85;;;;;;;20.43;90.83;96714.75;5040782;28;20205;-70
2021/07/09 11:08:41;;;;;;;8.88;6.45;;;;;;;20.59;89.85;96724.03;5042509;28;20225;-69
2021/07/09 11:11:10;;;;;;;10.25;6.60;;;;;;;21.20;91.68;96712.78;5043948;28;20201;-70
2021/07/09 11:13:51;;;;;;;10.65;6.70;;;;;;;21.49;86.89;96711.91;5043455;28;20225;-70
2021/07/09 11:16:27;;;;;;;5.80;4.75;;;;;;;21.13;83.39;96714.78;5042451;28;20194;-69
2021/07/09 11:18:57;;;;;;;8.05;5.60;;;;;;;21.15;83.57;96714.53;5042325;28;20224;-70
2021/07/09 11:21:46;;;;;;;9.05;5.68;;;;;;;21.24;81.38;96710.47;5044274;28;20209;-69
2021/07/09 11:24:15;;;;;;;5.97;4.47;;;;;;;21.04;80.92;96715.31;5039944;28;20205;-69
2021/07/09 11:26:43;;;;;;;5.38;4.43;;;;;;;21.12;79.93;96707.78;5036664;28;20217;-70